Barnes County Muni Information

FAA: BAC - ICAO: KBAC

Barnes County Muni (Airport) Location

State North Dakota
County Barnes
City Valley City
Barnes County Muni (Airport) is 1 mile northwest of Valley City, ND.
Latitude 46-56-28.3350N
Longitude 098-01-04.8490W
Elevation 1,401ft

Barnes County Muni METARs

METAR KBAC 250115Z AUTO 00000KT 6SM -DZ SCT024 SCT029 OVC039 03/03 A3007 RMK AO2
Altimeter 30.07"
Temperature 3.0°C (37.4°F)
Wind 0° at 0KT
Clouds scattered at 2,400ft scattered at 2,900ft overcast at 3,900ft
Visibility 6.0mi
Time observed: 2021-10-25T01:15:00Z

Barnes County Muni (Airport) Details

Status Operational
Activation December 1938
Ownership Public
Usage Public
Chart TWIN CITIES
ATC on-site No
Beacon schedule sunset-sunrise
Beacon color clear green

Barnes County Muni (Airport) Contacts

Owner BARNES COUNTY AIRPORT AUTHORITY
Owner address P.O. BOX 2, VALLEY CITY, ND 58072
Owner phone 701-840-2029
Manager STEVEN MARTENS
Manager address PO BOX 252, STANLEY, ND 58784
Manager phone (701) 629-0044

Barnes County Muni Radio Frequencies

Barnes County Muni (Airport) Radio Frequencies

UNICOM 122.8
Common traffic advisory frequency (CTAF) 122.8